createdAt,value
2023-05-04T00:01:10.968Z,5.80
2023-05-04T00:03:39.026Z,5.13
2023-05-04T00:06:07.665Z,5.40
2023-05-04T00:08:35.451Z,6.03
2023-05-04T00:11:05.101Z,5.57
2023-05-04T00:13:32.902Z,4.90
2023-05-04T00:16:00.793Z,5.43
2023-05-04T00:18:28.713Z,5.47
2023-05-04T00:20:56.528Z,4.67
2023-05-04T00:23:24.668Z,5.67
2023-05-04T00:25:52.467Z,5.60
2023-05-04T00:28:22.083Z,6.00
2023-05-04T00:30:50.379Z,5.53
2023-05-04T00:33:18.164Z,6.33
2023-05-04T00:35:46.370Z,5.97
2023-05-04T00:38:16.492Z,5.53
2023-05-04T00:40:44.336Z,5.87
2023-05-04T00:43:12.520Z,5.30
2023-05-04T00:45:42.211Z,5.73
2023-05-04T00:48:10.310Z,5.93
2023-05-04T00:50:38.309Z,5.90
2023-05-04T00:53:10.353Z,5.77
2023-05-04T00:55:40.563Z,6.03
2023-05-04T00:58:09.010Z,6.10
2023-05-04T01:00:37.378Z,5.70
2023-05-04T01:03:06.731Z,6.13
2023-05-04T01:05:39.286Z,5.73
2023-05-04T01:08:11.557Z,5.37
2023-05-04T01:10:46.324Z,6.13
2023-05-04T01:13:16.425Z,5.47
2023-05-04T01:15:44.676Z,5.30
2023-05-04T01:18:14.425Z,6.00
2023-05-04T01:20:42.278Z,5.77
2023-05-04T01:23:12.373Z,5.30
2023-05-04T01:25:46.355Z,5.20
2023-05-04T01:28:19.776Z,5.53
2023-05-04T01:30:55.551Z,5.70
2023-05-04T01:33:23.975Z,4.80
2023-05-04T01:35:52.174Z,5.20
2023-05-04T01:38:21.460Z,5.80
2023-05-04T01:40:49.830Z,5.70
2023-05-04T01:43:17.626Z,5.47
2023-05-04T01:45:45.462Z,5.60
2023-05-04T01:48:13.362Z,4.80
2023-05-04T01:50:41.255Z,5.50
2023-05-04T01:53:09.230Z,6.17
2023-05-04T01:55:38.561Z,4.80
2023-05-04T01:58:06.397Z,5.30
2023-05-04T02:00:34.528Z,5.17
2023-05-04T02:03:02.585Z,4.63
2023-05-04T02:05:30.578Z,5.27
2023-05-04T02:07:58.479Z,5.20
2023-05-04T02:10:26.357Z,5.50
2023-05-04T02:12:55.856Z,5.17
2023-05-04T02:15:23.741Z,5.77
2023-05-04T02:17:51.624Z,5.60
2023-05-04T02:20:19.682Z,4.80
2023-05-04T02:22:47.587Z,5.07
2023-05-04T02:25:15.892Z,4.80
2023-05-04T02:27:43.697Z,5.30
2023-05-04T02:30:14.609Z,4.70
2023-05-04T02:32:42.512Z,5.07
2023-05-04T02:35:10.854Z,5.40
2023-05-04T02:37:38.668Z,4.93
2023-05-04T02:40:07.848Z,5.40
2023-05-04T02:42:35.795Z,5.40
2023-05-04T02:45:03.851Z,4.87
2023-05-04T02:47:33.064Z,5.17
2023-05-04T02:50:00.846Z,4.87
2023-05-04T02:52:28.629Z,5.57
2023-05-04T02:54:56.488Z,5.43
2023-05-04T02:57:24.327Z,5.00
2023-05-04T02:59:52.531Z,5.47
2023-05-04T03:02:20.788Z,4.80
2023-05-04T03:04:50.741Z,5.10
2023-05-04T03:07:18.666Z,5.20
2023-05-04T03:09:47.901Z,4.80
2023-05-04T03:12:16.618Z,5.20
2023-05-04T03:14:44.441Z,5.50
2023-05-04T03:17:12.418Z,5.20
2023-05-04T03:19:40.258Z,5.90
2023-05-04T03:22:09.557Z,5.37
2023-05-04T03:24:37.975Z,5.60
2023-05-04T03:27:05.888Z,5.43
2023-05-04T03:29:33.794Z,5.03
2023-05-04T03:32:01.732Z,5.37
2023-05-04T03:34:29.590Z,5.60
2023-05-04T03:37:02.258Z,5.30
2023-05-04T03:39:31.914Z,4.73
2023-05-04T03:41:59.690Z,4.83
2023-05-04T03:44:27.544Z,5.57
2023-05-04T03:46:55.373Z,5.40
2023-05-04T03:49:23.230Z,5.87
2023-05-04T03:51:51.246Z,5.53
2023-05-04T03:54:19.076Z,5.60
2023-05-04T03:56:48.749Z,5.77
2023-05-04T03:59:17.496Z,5.30
2023-05-04T04:01:45.397Z,5.50
2023-05-04T04:04:13.298Z,5.83
2023-05-04T04:06:43.311Z,5.70
2023-05-04T04:09:11.547Z,5.70
2023-05-04T04:11:39.306Z,4.87
2023-05-04T04:14:08.517Z,6.07
2023-05-04T04:16:36.374Z,5.70
2023-05-04T04:19:04.304Z,5.10
2023-05-04T04:21:32.155Z,5.67
2023-05-04T04:23:59.949Z,5.73
2023-05-04T04:26:28.265Z,5.77
2023-05-04T04:28:56.145Z,5.40
2023-05-04T04:31:25.394Z,6.47
2023-05-04T04:33:53.251Z,5.50
2023-05-04T04:36:21.121Z,5.40
2023-05-04T04:38:49.683Z,6.07
2023-05-04T04:41:17.551Z,5.10
2023-05-04T04:43:46.268Z,5.77
2023-05-04T04:46:14.589Z,6.30
2023-05-04T04:48:43.772Z,5.30
2023-05-04T04:51:12.175Z,6.37
2023-05-04T04:53:40.068Z,5.53
2023-05-04T04:56:09.559Z,5.77
2023-05-04T04:58:37.460Z,6.10
2023-05-04T05:01:06.051Z,5.90
2023-05-04T05:03:33.951Z,6.03
2023-05-04T05:06:03.997Z,5.83
2023-05-04T05:08:33.810Z,6.70
2023-05-04T05:11:01.569Z,5.70
2023-05-04T05:13:29.381Z,5.33
2023-05-04T05:15:57.257Z,6.20
2023-05-04T05:18:25.127Z,6.37
2023-05-04T05:20:52.865Z,6.40
2023-05-04T05:23:22.224Z,6.20
2023-05-04T05:25:51.572Z,6.47
2023-05-04T05:28:19.589Z,6.83
2023-05-04T05:30:47.961Z,6.77
2023-05-04T05:33:16.820Z,6.27
2023-05-04T05:35:44.827Z,6.40
2023-05-04T05:38:12.915Z,7.10
2023-05-04T05:40:42.148Z,6.27
2023-05-04T05:43:10.499Z,6.53
2023-05-04T05:45:38.364Z,6.50
2023-05-04T05:48:06.773Z,6.80
2023-05-04T05:50:35.293Z,7.07
2023-05-04T05:53:03.112Z,6.53
2023-05-04T05:55:31.010Z,7.13
2023-05-04T05:58:00.204Z,6.40
2023-05-04T06:00:28.083Z,6.17
2023-05-04T06:02:56.254Z,6.67
2023-05-04T06:05:24.506Z,7.10
2023-05-04T06:07:52.358Z,6.53
2023-05-04T06:10:20.409Z,7.10
2023-05-04T06:12:48.687Z,7.13
2023-05-04T06:15:18.500Z,7.07
2023-05-04T06:17:48.799Z,6.77
2023-05-04T06:20:17.192Z,6.80
2023-05-04T06:22:45.359Z,6.37
2023-05-04T06:25:13.518Z,6.33
2023-05-04T06:27:41.439Z,6.40
2023-05-04T06:30:10.608Z,5.90
2023-05-04T06:32:39.901Z,6.23
2023-05-04T06:35:08.993Z,6.93
2023-05-04T06:37:37.319Z,6.47
2023-05-04T06:40:06.057Z,6.43
2023-05-04T06:42:33.913Z,6.50
2023-05-04T06:45:01.767Z,6.80
2023-05-04T06:47:29.678Z,6.17
2023-05-04T06:49:58.917Z,6.77
2023-05-04T06:52:29.592Z,6.73
2023-05-04T06:54:57.402Z,6.63
2023-05-04T06:57:25.554Z,6.50
2023-05-04T06:59:53.681Z,6.90
2023-05-04T07:02:21.516Z,6.23
2023-05-04T07:04:49.818Z,6.80
2023-05-04T07:07:19.087Z,6.00
2023-05-04T07:09:47.857Z,7.10
2023-05-04T07:12:16.195Z,6.00
2023-05-04T07:14:44.022Z,6.40
2023-05-04T07:17:12.014Z,6.78
2023-05-04T07:19:39.787Z,5.85
2023-05-04T07:22:07.558Z,6.55
2023-05-04T07:24:36.870Z,6.55
2023-05-04T07:27:04.886Z,6.22
2023-05-04T07:29:33.131Z,7.10
2023-05-04T07:32:00.952Z,5.93
2023-05-04T07:34:44.631Z,5.90
2023-05-04T07:37:15.861Z,6.10
2023-05-04T07:39:46.634Z,6.45
2023-05-04T07:42:14.817Z,5.82
2023-05-04T07:44:42.727Z,6.45
2023-05-04T07:47:10.751Z,5.90
2023-05-04T07:49:38.630Z,5.78
2023-05-04T07:52:06.743Z,7.30
2023-05-04T07:54:34.650Z,6.40
2023-05-04T07:57:04.726Z,6.13
2023-05-04T07:59:32.930Z,6.20
2023-05-04T08:02:00.908Z,5.90
2023-05-04T08:04:28.790Z,6.25
2023-05-04T08:06:56.681Z,6.40
2023-05-04T08:09:24.514Z,5.90
2023-05-04T08:11:52.481Z,5.72
2023-05-04T08:14:21.868Z,6.03
2023-05-04T08:16:50.161Z,6.03
2023-05-04T08:19:20.014Z,5.68
2023-05-04T08:21:48.767Z,5.88
2023-05-04T08:24:17.264Z,6.07
2023-05-04T08:26:49.894Z,5.90
2023-05-04T08:29:31.554Z,5.00
2023-05-04T08:32:00.547Z,5.35
2023-05-04T08:34:30.867Z,5.53
2023-05-04T08:36:59.463Z,5.32
2023-05-04T08:39:27.557Z,5.13
2023-05-04T08:41:55.515Z,5.50
2023-05-04T08:44:24.167Z,5.30
2023-05-04T08:46:54.273Z,4.88
2023-05-04T08:49:22.655Z,4.63
2023-05-04T08:51:51.482Z,5.35
2023-05-04T08:54:19.919Z,4.95
2023-05-04T08:56:48.001Z,3.88
2023-05-04T08:59:20.410Z,4.07
2023-05-04T09:01:52.914Z,3.75
2023-05-04T09:04:22.534Z,4.25
2023-05-04T09:06:50.836Z,5.15
2023-05-04T09:09:18.756Z,4.45
2023-05-04T09:11:46.761Z,4.28
2023-05-04T09:14:15.328Z,4.07
2023-05-04T09:16:43.222Z,4.00
2023-05-04T09:19:20.014Z,3.75
2023-05-04T09:21:51.246Z,3.75
2023-05-04T09:24:27.724Z,3.55
2023-05-04T09:26:55.935Z,3.40
2023-05-04T09:29:25.590Z,3.47
2023-05-04T09:31:55.432Z,3.08
2023-05-04T09:34:23.411Z,2.95
2023-05-04T09:37:03.608Z,3.00
2023-05-04T09:39:31.579Z,2.85
2023-05-04T09:41:59.500Z,3.03
2023-05-04T09:44:29.654Z,2.88
2023-05-04T09:46:58.821Z,2.90
2023-05-04T09:49:33.731Z,3.22
2023-05-04T09:52:04.769Z,3.15
2023-05-04T09:54:36.334Z,3.65
2023-05-04T09:57:12.954Z,2.78
2023-05-04T09:59:41.405Z,2.88
2023-05-04T10:02:22.092Z,2.75
2023-05-04T10:04:52.466Z,2.78
2023-05-04T10:07:22.184Z,2.92
2023-05-04T10:09:51.153Z,3.05
2023-05-04T10:12:19.273Z,3.00
2023-05-04T10:14:47.698Z,2.30
2023-05-04T10:17:26.378Z,2.70
2023-05-04T10:20:07.396Z,2.92
2023-05-04T10:23:04.031Z,2.97
2023-05-04T10:25:53.415Z,2.92
2023-05-04T10:28:35.761Z,3.15
2023-05-04T10:31:06.146Z,2.92
2023-05-04T10:33:44.083Z,3.60
2023-05-04T10:36:12.672Z,3.85
2023-05-04T10:38:42.722Z,3.67
2023-05-04T10:41:17.449Z,4.30
2023-05-04T10:43:48.800Z,3.70
2023-05-04T10:46:21.241Z,3.67
2023-05-04T10:48:50.390Z,4.05
2023-05-04T10:51:22.437Z,3.60
2023-05-04T10:53:52.828Z,4.30
2023-05-04T10:56:24.532Z,3.78
2023-05-04T10:58:52.615Z,4.53
2023-05-04T11:01:21.690Z,4.25
2023-05-04T11:03:50.512Z,3.75
2023-05-04T11:06:23.256Z,3.60
2023-05-04T11:09:02.627Z,3.80
2023-05-04T11:11:30.893Z,3.65
2023-05-04T11:13:59.553Z,3.42
2023-05-04T11:16:28.553Z,3.78
2023-05-04T11:18:56.485Z,3.65
2023-05-04T11:21:28.171Z,4.40
2023-05-04T11:23:56.847Z,3.70
2023-05-04T11:26:26.484Z,4.20
2023-05-04T11:28:54.622Z,4.10
2023-05-04T11:31:22.797Z,3.65
2023-05-04T11:33:52.312Z,4.05
2023-05-04T11:36:21.766Z,4.20
2023-05-04T11:38:50.900Z,4.25
2023-05-04T11:41:18.731Z,3.80
2023-05-04T11:43:48.980Z,3.75
2023-05-04T11:46:18.050Z,4.03
2023-05-04T11:48:47.400Z,4.50
2023-05-04T11:51:15.282Z,4.00
2023-05-04T11:53:43.124Z,5.90
2023-05-04T11:56:11.336Z,5.05
2023-05-04T11:58:39.167Z,4.75
2023-05-04T12:01:08.609Z,5.60
2023-05-04T12:03:51.218Z,5.07
2023-05-04T12:06:31.640Z,5.22
2023-05-04T12:09:03.503Z,5.22
2023-05-04T12:11:31.397Z,5.15
2023-05-04T12:14:04.362Z,5.68
2023-05-04T12:16:34.207Z,5.70
2023-05-04T12:19:06.412Z,5.38
2023-05-04T12:21:35.969Z,5.07
2023-05-04T12:24:04.405Z,5.30
2023-05-04T12:26:32.308Z,5.30
2023-05-04T12:29:00.116Z,4.90
2023-05-04T12:31:28.598Z,4.40
2023-05-04T12:33:57.866Z,4.80
2023-05-04T12:36:25.746Z,4.57
2023-05-04T12:38:53.829Z,4.65
2023-05-04T12:41:21.767Z,5.25
2023-05-04T12:43:50.865Z,4.97
2023-05-04T12:46:21.520Z,5.38
2023-05-04T12:48:49.892Z,6.03
2023-05-04T12:51:19.166Z,5.18
2023-05-04T12:53:46.992Z,6.88
2023-05-04T12:56:15.209Z,5.32
2023-05-04T12:58:43.053Z,5.43
2023-05-04T13:01:11.088Z,5.35
2023-05-04T13:03:39.180Z,5.95
2023-05-04T13:06:07.700Z,5.78
2023-05-04T13:08:37.638Z,5.78
2023-05-04T13:11:05.485Z,6.07
2023-05-04T13:13:34.710Z,5.72
2023-05-04T13:16:02.975Z,5.88
2023-05-04T13:18:31.049Z,5.93
2023-05-04T13:20:59.142Z,6.30
2023-05-04T13:23:27.004Z,6.68
2023-05-04T13:25:56.235Z,6.85
2023-05-04T13:28:24.377Z,6.85
2023-05-04T13:30:53.117Z,7.07
2023-05-04T13:33:29.455Z,6.63
2023-05-04T13:35:58.825Z,6.95
2023-05-04T13:38:27.243Z,6.88
2023-05-04T13:40:56.733Z,7.07
2023-05-04T13:43:24.749Z,7.40
2023-05-04T13:45:52.941Z,7.35
2023-05-04T13:48:20.856Z,7.22
2023-05-04T13:50:48.946Z,7.38
2023-05-04T13:53:16.837Z,6.88
2023-05-04T13:55:45.535Z,6.18
2023-05-04T13:58:15.130Z,6.53
2023-05-04T14:00:43.223Z,6.32
2023-05-04T14:03:11.648Z,6.60
2023-05-04T14:05:39.482Z,6.90
2023-05-04T14:08:07.467Z,6.35
2023-05-04T14:10:37.558Z,5.80
2023-05-04T14:13:05.615Z,5.85
2023-05-04T14:15:34.794Z,6.78
2023-05-04T14:18:02.685Z,6.43
2023-05-04T14:20:30.553Z,6.50
2023-05-04T14:22:58.441Z,5.82
2023-05-04T14:25:26.723Z,7.20
2023-05-04T14:27:54.557Z,7.57
2023-05-04T14:30:22.599Z,6.78
2023-05-04T14:32:54.577Z,6.57
2023-05-04T14:35:22.812Z,6.57
2023-05-04T14:37:50.828Z,6.63
2023-05-04T14:40:18.764Z,6.03
2023-05-04T14:42:47.059Z,6.57
2023-05-04T14:45:17.110Z,6.28
2023-05-04T14:47:45.462Z,6.10
2023-05-04T14:50:15.455Z,5.35
2023-05-04T14:52:43.236Z,6.15
2023-05-04T14:55:11.615Z,6.05
2023-05-04T14:57:39.721Z,6.38
2023-05-04T15:00:09.535Z,6.63
2023-05-04T15:02:38.459Z,6.80
2023-05-04T15:05:07.451Z,6.32
2023-05-04T15:07:36.692Z,6.55
2023-05-04T15:10:06.866Z,6.55
2023-05-04T15:12:34.992Z,6.97
2023-05-04T15:15:02.785Z,7.15
2023-05-04T15:17:30.783Z,7.45
2023-05-04T15:19:58.703Z,7.05
2023-05-04T15:22:26.738Z,6.18
2023-05-04T15:24:56.591Z,7.90
2023-05-04T15:27:24.463Z,6.85
2023-05-04T15:29:52.342Z,7.72
2023-05-04T15:32:20.256Z,7.45
2023-05-04T15:34:57.427Z,7.95
2023-05-04T15:37:32.225Z,7.72
2023-05-04T15:40:03.721Z,7.57
2023-05-04T15:42:31.664Z,8.38
2023-05-04T15:44:59.507Z,8.32
2023-05-04T15:47:27.469Z,7.95
2023-05-04T15:49:55.600Z,8.40
2023-05-04T15:52:24.042Z,7.78
2023-05-04T15:54:51.957Z,8.50
2023-05-04T15:57:21.507Z,8.73
2023-05-04T15:59:50.317Z,8.70
2023-05-04T16:02:18.135Z,10.23
2023-05-04T16:04:46.709Z,9.23
2023-05-04T16:07:14.604Z,8.80
2023-05-04T16:09:42.550Z,8.00
2023-05-04T16:12:10.617Z,8.50
2023-05-04T16:14:39.765Z,7.47
2023-05-04T16:17:08.122Z,7.63
2023-05-04T16:19:36.314Z,7.45
2023-05-04T16:22:04.228Z,7.43
2023-05-04T16:24:32.065Z,7.22
2023-05-04T16:27:00.632Z,7.93
2023-05-04T16:29:28.504Z,7.35
2023-05-04T16:31:57.736Z,7.53
2023-05-04T16:34:25.785Z,7.60
2023-05-04T16:36:53.594Z,7.60
2023-05-04T16:39:21.441Z,7.72
2023-05-04T16:41:49.618Z,8.35
2023-05-04T16:44:17.464Z,8.18
2023-05-04T16:46:45.352Z,6.88
2023-05-04T16:49:14.918Z,8.50
2023-05-04T16:51:43.289Z,7.63
2023-05-04T16:54:11.450Z,7.45
2023-05-04T16:56:39.302Z,7.05
2023-05-04T16:59:07.142Z,7.22
2023-05-04T17:01:35.402Z,8.20
2023-05-04T17:04:03.421Z,7.55
2023-05-04T17:06:32.629Z,7.35
2023-05-04T17:09:00.832Z,8.68
2023-05-04T17:11:28.682Z,8.10
2023-05-04T17:13:56.945Z,7.90
2023-05-04T17:16:24.807Z,7.63
2023-05-04T17:18:52.702Z,7.57
2023-05-04T17:21:20.831Z,7.38
2023-05-04T17:23:50.517Z,9.33
2023-05-04T17:26:18.338Z,7.82
2023-05-04T17:28:46.445Z,8.02
2023-05-04T17:31:14.386Z,8.43
2023-05-04T17:33:42.227Z,8.20
2023-05-04T17:36:11.982Z,7.28
2023-05-04T17:38:41.822Z,8.25
2023-05-04T17:41:11.330Z,7.93
2023-05-04T17:43:39.206Z,7.50
2023-05-04T17:46:07.119Z,7.60
2023-05-04T17:48:36.317Z,6.93
2023-05-04T17:51:04.596Z,7.63
2023-05-04T17:53:32.534Z,6.95
2023-05-04T17:56:00.320Z,7.32
2023-05-04T17:58:29.536Z,7.30
2023-05-04T18:00:57.403Z,6.90
2023-05-04T18:03:25.433Z,6.43
2023-05-04T18:05:53.281Z,8.52
2023-05-04T18:08:21.066Z,7.38
2023-05-04T18:10:50.367Z,6.15
2023-05-04T18:13:18.292Z,6.20
2023-05-04T18:15:47.776Z,6.55
2023-05-04T18:18:15.874Z,6.10
2023-05-04T18:20:43.711Z,5.85
2023-05-04T18:23:11.639Z,5.80
2023-05-04T18:25:39.641Z,6.20
2023-05-04T18:28:08.506Z,5.88
2023-05-04T18:30:36.363Z,6.13
2023-05-04T18:33:05.742Z,5.90
2023-05-04T18:35:33.624Z,5.97
2023-05-04T18:38:01.485Z,5.68
2023-05-04T18:40:29.422Z,5.65
2023-05-04T18:42:57.406Z,5.82
2023-05-04T18:45:26.054Z,6.00
2023-05-04T18:47:54.009Z,5.82
2023-05-04T18:50:23.495Z,5.55
2023-05-04T18:52:52.138Z,4.63
2023-05-04T18:55:20.290Z,5.47
2023-05-04T18:57:48.568Z,5.70
2023-05-04T19:00:16.846Z,4.95
2023-05-04T19:02:44.840Z,4.95
2023-05-04T19:05:14.657Z,5.55
2023-05-04T19:07:44.377Z,5.45
2023-05-04T19:10:12.730Z,5.20
2023-05-04T19:12:40.584Z,4.88
2023-05-04T19:15:09.358Z,5.18
2023-05-04T19:17:37.341Z,4.75
2023-05-04T19:20:06.279Z,5.43
2023-05-04T19:22:34.233Z,4.93
2023-05-04T19:25:04.517Z,5.05
2023-05-04T19:27:32.361Z,4.55
2023-05-04T19:30:00.437Z,4.75
2023-05-04T19:32:30.899Z,4.90
2023-05-04T19:34:58.756Z,5.88
2023-05-04T19:37:26.986Z,4.78
2023-05-04T19:39:54.794Z,4.70
2023-05-04T19:42:24.049Z,4.60
2023-05-04T19:44:51.933Z,4.40
2023-05-04T19:47:19.760Z,4.82
2023-05-04T19:49:48.590Z,4.80
2023-05-04T19:52:16.638Z,4.43
2023-05-04T19:54:48.648Z,4.13
2023-05-04T19:57:16.619Z,3.88
2023-05-04T19:59:47.280Z,4.50
2023-05-04T20:02:15.731Z,4.50
2023-05-04T20:04:43.681Z,4.63
2023-05-04T20:07:11.587Z,4.20
2023-05-04T20:09:39.440Z,4.30
2023-05-04T20:12:07.387Z,4.85
2023-05-04T20:14:36.080Z,4.30
2023-05-04T20:17:05.266Z,4.63
2023-05-04T20:19:33.031Z,4.57
2023-05-04T20:22:00.955Z,4.47
2023-05-04T20:24:28.816Z,5.28
2023-05-04T20:26:56.677Z,4.95
2023-05-04T20:29:24.533Z,5.03
2023-05-04T20:31:52.606Z,4.43
2023-05-04T20:34:21.764Z,4.88
2023-05-04T20:36:49.761Z,5.00
2023-05-04T20:39:17.967Z,5.18
2023-05-04T20:41:46.008Z,5.30
2023-05-04T20:44:13.818Z,4.55
2023-05-04T20:46:41.644Z,5.10
2023-05-04T20:49:09.541Z,4.93
2023-05-04T20:51:38.907Z,4.47
2023-05-04T20:54:06.871Z,4.80
2023-05-04T20:56:34.811Z,4.82
2023-05-04T20:59:02.702Z,4.90
2023-05-04T21:01:30.626Z,4.25
2023-05-04T21:03:58.660Z,4.40
2023-05-04T21:06:26.651Z,5.13
2023-05-04T21:08:56.873Z,4.53
2023-05-04T21:11:24.736Z,4.55
2023-05-04T21:13:52.710Z,5.03
2023-05-04T21:16:20.512Z,4.60
2023-05-04T21:18:48.806Z,4.43
2023-05-04T21:21:16.981Z,4.72
2023-05-04T21:23:44.798Z,4.43
2023-05-04T21:26:14.047Z,4.68
2023-05-04T21:28:42.513Z,4.78
2023-05-04T21:31:10.561Z,4.38
2023-05-04T21:33:38.457Z,3.63
2023-05-04T21:36:13.888Z,4.55
2023-05-04T21:38:41.991Z,3.67
2023-05-04T21:41:15.566Z,4.18
2023-05-04T21:43:44.110Z,4.80
2023-05-04T21:46:12.946Z,4.35
2023-05-04T21:48:41.468Z,4.15
2023-05-04T21:51:09.387Z,4.80
2023-05-04T21:53:37.269Z,3.53
2023-05-04T21:56:08.169Z,4.70
2023-05-04T21:58:39.481Z,4.65
2023-05-04T22:01:07.546Z,5.70
2023-05-04T22:03:35.466Z,4.38
2023-05-04T22:06:03.480Z,4.90
2023-05-04T22:08:31.363Z,4.00
2023-05-04T22:10:59.650Z,4.72
2023-05-04T22:13:27.869Z,4.70
2023-05-04T22:15:56.993Z,4.72
2023-05-04T22:18:24.863Z,4.50
2023-05-04T22:20:52.684Z,4.63
2023-05-04T22:23:20.558Z,4.43
2023-05-04T22:25:48.686Z,4.55
2023-05-04T22:28:16.870Z,3.78
2023-05-04T22:30:44.795Z,5.00
2023-05-04T22:33:14.343Z,4.65
2023-05-04T22:35:42.282Z,4.10
2023-05-04T22:38:10.227Z,5.03
2023-05-04T22:40:40.410Z,4.15
2023-05-04T22:43:08.458Z,4.88
2023-05-04T22:45:36.734Z,4.45
2023-05-04T22:48:04.754Z,4.30
2023-05-04T22:50:34.016Z,4.93
2023-05-04T22:53:01.943Z,4.35
2023-05-04T22:55:30.241Z,5.00
2023-05-04T22:57:58.482Z,4.80
2023-05-04T23:00:26.533Z,4.00
2023-05-04T23:02:54.497Z,4.85
2023-05-04T23:05:22.690Z,4.78
2023-05-04T23:07:52.884Z,4.95
2023-05-04T23:10:21.244Z,4.80
2023-05-04T23:12:49.608Z,4.80
2023-05-04T23:15:18.246Z,4.95
2023-05-04T23:17:46.131Z,5.60
2023-05-04T23:20:14.528Z,5.70
2023-05-04T23:22:42.385Z,5.65
2023-05-04T23:25:11.716Z,5.15
2023-05-04T23:27:39.819Z,5.72
2023-05-04T23:30:09.896Z,5.47
2023-05-04T23:32:37.982Z,5.60
2023-05-04T23:35:07.487Z,5.57
2023-05-04T23:37:35.336Z,5.72
2023-05-04T23:40:03.311Z,5.85
2023-05-04T23:42:32.518Z,6.03
2023-05-04T23:45:00.371Z,5.45
2023-05-04T23:47:28.253Z,5.70
2023-05-04T23:49:56.172Z,6.28
2023-05-04T23:52:24.108Z,6.00
2023-05-04T23:54:54.484Z,6.55
2023-05-04T23:57:22.409Z,7.13
2023-05-04T23:59:53.041Z,5.93
